Kihnu, Estonia

12:07 PM EET on February 14, 2016 (GMT +0200)
Kuressaare | | Change Station
CLOSE
Current Station
Airport
Location: Kuressaare,
Elevation: 13 ft
Nearby Weather Stations

Elev 13 ft 58.23 °N, 22.51 °E | Updated 17 minutes ago

Overcast
Overcast
36 °F
Feels Like 30 °F
N
7
Wind Variable Wind from SE

Today
High -- | Low -- °F
--% Chance of Precip.
Yesterday
High -- | Low -- °F
Precip. -- in
Pressure 29.47 in
Visibility 6.2 miles
Clouds Overcast 400 ft
Windchill 30 °F
Dew Point 34 °F
Humidity 93%
Rainfall 0.00 in
Snow Depth Not available.
7:59 AM 5:17 PM
Waxing Crescent, 40% visible
METAR EEKE 140950Z 13006KT 9999 OVC004 02/01 Q0998 R17/290095
Pressure 29.47 in
Visibility 6.2 miles
Clouds Overcast 400 ft
Windchill 30 °F
Dew Point 34 °F
Humidity 93%
Rainfall 0.00 in
Snow Depth Not available.
7:59 AM 5:17 PM
Waxing Crescent, 40% visible
METAR EEKE 140950Z 13006KT 9999 OVC004 02/01 Q0998 R17/290095

10-Day Weather Forecast

Almanac

Astronomy

Feb. 14, 2016 Rise Set
Actual Time
Civil Twilight
Nautical Twilight
Astronomical Twilight
Moon
Length of Visible Light
Length of Day
Tomorrow will be .
, % of the Moon is Illuminated

Today's Extremes

Country Highs Country Lows

Community

WunderPhotos

Upload Photos

1,892,761 photos uploaded!

WunderBlog® & News

Nearby

Air Quality

  Air Quality AQ Index Pollutant
Not available.

Snow Depth

Station Depth Elevation

Earthquake Activity

City Distance Mag. Time & Date
Minimum magnitude displayed is 2.5.

Coastal Water Temperatures

Place Temperature

Stations

Nearby Weather Stations

Station Location Temp. Windchill Dew Point Humidity Wind Precip. Elev Updated Type